Latest Weather Observations for Montague Island

IDN60801

Issued at 10:34 pm EDT Friday 27 February 2015 (issued every 30 minutes, with the page automatically refreshed every 10 minutes)

About weather observations | Map of weather stations | Latest weather observations for NSW | Other Formats
Station Details ID: 069017 Name: MONTAGUE ISLAND LIGHTHOUSE Lat: -36.25 Lon: 150.23 Height: 52.0 m
Data from the previous 72 hours. | See also: Recent months at Montague Island
Date/Time
EDT
Temp
°C
App
Temp
°C
Dew
Point
Rel
Hum
%
Delta-T
°C
Wind Press
QNH
hPa
Press
MSL
hPa
Rain
since 9 am
mm
Dir
 
Spd
km/h
Gust
km/h
Spd
kts
Gust
kts
27/10:30pm 21.9 24.1 19.1 84 1.8 NNE 6 11 3 6 1010.7 1010.6 0.0
27/10:00pm 21.6 24.2 19.2 86 1.5 SW 4 7 2 4 1011.0 1010.9 0.0
27/09:30pm 22.1 24.7 19.3 84 1.8 NW 4 6 2 3 1010.9 1010.8 0.0
27/09:00pm 22.2 23.1 19.2 83 1.9 NNE 13 15 7 8 1010.4 1010.3 0.0
27/08:30pm 22.1 23.8 19.3 84 1.8 NNE 9 13 5 7 1010.0 1009.8 0.0
27/08:00pm 22.2 23.5 19.4 84 1.8 NNE 11 13 6 7 1009.6 1009.4 0.0
27/07:30pm 22.3 22.8 19.3 83 1.9 NNE 15 17 8 9 1009.2 1009.0 0.0
27/07:00pm 22.6 22.5 18.8 79 2.4 NNE 17 22 9 12 1009.0 1008.8 0.0
27/06:30pm 22.7 22.2 18.7 78 2.5 NE 19 20 10 11 1008.7 1008.5 0.0
27/06:00pm 22.9 22.5 18.9 78 2.5 NE 19 24 10 13 1008.5 1008.3 0.0
27/05:30pm 23.2 22.7 19.2 78 2.6 NE 20 28 11 15 1008.2 1008.0 0.0
27/05:00pm 23.3 22.3 18.8 76 2.9 NE 22 30 12 16 1008.0 1007.8 0.0
27/04:30pm 23.4 22.0 18.7 75 3.0 NE 24 30 13 16 1008.2 1008.0 0.0
27/04:00pm 23.2 20.9 18.5 75 3.0 NE 28 32 15 17 1008.2 1008.0 0.0
27/03:30pm 23.3 20.8 18.8 76 2.9 NE 30 33 16 18 1008.4 1008.2 0.0
27/03:00pm 23.1 21.1 19.1 78 2.6 NE 28 35 15 19 1008.8 1008.6 0.0
27/02:30pm 22.6 20.7 18.6 78 2.5 ENE 26 32 14 17 1009.3 1009.1 0.0
27/02:00pm 23.1 21.3 18.8 77 2.7 ENE 26 30 14 16 1009.6 1009.4 0.0
27/01:30pm 22.6 21.9 18.2 76 2.8 ENE 19 22 10 12 1010.2 1010.0 0.0
27/01:00pm 22.7 22.3 18.0 75 2.9 NE 17 20 9 11 1010.3 1010.2 0.0
27/12:30pm 23.5 24.2 19.6 79 2.5 NNE 15 19 8 10 1010.6 1010.5 0.0
27/12:00pm 21.9 23.0 17.9 78 2.5 NE 9 13 5 7 1010.9 1010.8 0.0
27/11:30am 22.2 23.9 18.0 77 2.6 ENE 6 9 3 5 1011.2 1011.1 0.0
27/11:00am 22.0 23.6 17.8 77 2.6 E 6 9 3 5 1011.0 1010.9 0.0
27/10:30am 21.0 23.4 18.0 83 1.9 E 2 6 1 3 1011.1 1011.0 0.0
27/10:00am 20.6 22.2 17.8 84 1.7 SSW 6 9 3 5 1011.2 1011.1 0.0
27/09:30am 20.3 21.4 17.9 86 1.5 SSW 9 13 5 7 1010.9 1010.8 0.0
27/09:00am 20.3 21.6 17.5 84 1.7 S 7 11 4 6 1010.7 1010.6 0.0
27/08:30am 19.9 21.0 17.9 88 1.2 SSW 9 11 5 6 1010.7 1010.6 0.0
27/08:00am 19.4 20.5 17.9 91 0.9 S 9 11 5 6 1010.7 1010.6 0.0
27/07:30am 19.3 20.2 18.3 94 0.6 SW 11 13 6 7 1010.5 1010.4 0.0
27/07:00am 19.4 20.4 18.6 95 0.5 SW 11 13 6 7 1010.3 1010.2 0.0
27/06:30am 19.8 21.8 19.1 96 0.4 SW 7 9 4 5 1009.8 1009.6 0.0
27/06:00am 19.7 21.2 18.9 95 0.5 S 9 9 5 5 1009.6 1009.4 0.0
27/05:30am 19.8 20.4 18.6 93 0.7 SSW 13 17 7 9 1009.6 1009.4 0.0
27/05:00am 19.8 20.7 18.5 92 0.8 SSW 11 11 6 6 1009.7 1009.5 0.0
27/04:30am 19.8 21.5 18.5 92 0.8 S 7 9 4 5 1009.7 1009.5 0.0
27/04:00am 20.1 21.9 18.4 90 1.1 WSW 6 7 3 4 1009.7 1009.5 0.0
27/03:30am 20.0 21.8 18.3 90 1.1 WSW 6 6 3 3 1009.7 1009.5 0.0
27/03:00am 20.0 21.8 18.3 90 1.1 WNW 6 7 3 4 1009.8 1009.6 0.0
27/02:30am 20.3 22.0 18.4 89 1.2 W 7 9 4 5 1009.9 1009.7 0.0
27/02:00am 20.6 22.3 18.5 88 1.3 WSW 7 7 4 4 1010.0 1009.8 0.0
27/01:30am 21.0 22.7 18.6 86 1.5 W 7 9 4 5 1010.3 1010.2 0.0
27/01:00am 20.9 22.2 17.5 81 2.1 ESE 7 9 4 5 1010.6 1010.5 0.0
27/12:30am 21.0 21.8 17.2 79 2.3 ESE 9 13 5 7 1010.6 1010.5 0.0
27/12:00am 20.9 20.8 16.9 78 2.4 SE 13 15 7 8 1010.7 1010.6 0.0
 
Date/Time
EDT
Temp
°C
App
Temp
°C
Dew
Point
Rel
Hum
%
Delta-T
°C
Wind Press
QNH
hPa
Press
MSL
hPa
Rain
since 9 am
mm
Dir
 
Spd
km/h
Gust
km/h
Spd
kts
Gust
kts
26/11:30pm 21.1 22.7 18.3 84 1.7 E 7 11 4 6 1010.8 1010.7 0.0
26/11:00pm 21.2 21.2 18.2 83 1.9 ESE 15 17 8 9 1010.8 1010.7 0.0
26/10:30pm 21.2 20.5 18.2 83 1.9 ESE 19 22 10 12 1010.9 1010.8 0.0
26/10:00pm 21.2 20.8 18.0 82 2.0 ESE 17 19 9 10 1010.9 1010.8 0.0
26/09:30pm 21.2 21.3 18.4 84 1.8 E 15 17 8 9 1010.7 1010.6 0.0
26/09:00pm 21.3 22.2 19.2 88 1.3 SE 13 17 7 9 1010.5 1010.4 0.0
26/08:30pm 21.1 22.3 19.0 88 1.3 SSE 11 15 6 8 1009.7 1009.5 0.0
26/08:00pm 21.1 21.3 18.5 85 1.6 S 15 19 8 10 1009.3 1009.1 0.0
26/07:30pm 21.2 21.5 18.0 82 2.0 SSW 13 17 7 9 1008.9 1008.7 0.0
26/07:00pm 21.6 22.8 19.0 85 1.6 SSW 11 15 6 8 1008.4 1008.2 0.0
26/06:30pm 21.9 22.9 18.7 82 2.0 SSW 11 13 6 7 1007.9 1007.7 0.0
26/06:00pm 21.9 23.1 18.3 80 2.3 S 9 13 5 7 1007.6 1007.4 0.0
26/05:30pm 21.5 22.7 18.3 82 2.0 SSE 9 11 5 6 1007.2 1007.0 0.0
26/05:00pm 21.7 22.7 17.7 78 2.5 SSE 9 11 5 6 1007.1 1006.9 0.0
26/04:30pm 22.1 23.4 17.2 74 3.0 ESE 6 7 3 4 1007.0 1006.8 0.0
26/04:00pm 24.1 25.5 16.4 62 4.7 W 4 7 2 4 1006.9 1006.7 0.0
26/03:30pm 22.6 23.9 17.5 73 3.2 NW 7 9 4 5 1007.0 1006.8 0.0
26/03:00pm 21.8 23.0 17.4 76 2.7 NNW 7 9 4 5 1007.3 1007.1 0.0
26/02:30pm 21.8 22.4 17.6 77 2.6 NNW 11 13 6 7 1007.5 1007.3 0.0
26/02:00pm 21.6 21.7 17.4 77 2.6 NNW 13 19 7 10 1007.7 1007.5 0.0
26/01:30pm 21.5 21.5 17.3 77 2.6 N 13 19 7 10 1007.7 1007.5 0.0
26/01:00pm 21.7 21.4 17.3 76 2.7 N 15 20 8 11 1007.7 1007.5 0.0
26/12:30pm 22.4 21.9 17.8 75 2.9 N 17 24 9 13 1008.0 1007.8 0.0
26/12:00pm 21.2 19.7 16.4 74 2.9 NNE 19 22 10 12 1008.3 1008.1 0.0
26/11:30am 20.8 20.6 16.6 77 2.5 N 13 19 7 10 1008.6 1008.4 0.0
26/11:00am 20.6 19.7 16.8 79 2.3 NNW 17 20 9 11 1009.1 1008.9 0.0
26/10:30am 20.6 19.7 16.8 79 2.3 N 17 22 9 12 1009.1 1008.9 0.0
26/10:00am 20.4 19.2 17.0 81 2.1 NNW 19 24 10 13 1009.0 1008.8 0.0
26/09:30am 18.9 18.0 16.9 88 1.2 NNW 17 22 9 12 1009.0 1008.8 0.0
26/09:00am 18.7 17.2 16.3 86 1.4 NNW 19 22 10 12 1009.0 1008.8 0.2
26/08:30am 18.4 17.0 16.6 89 1.1 NNW 19 22 10 12 1009.0 1008.8 0.2
26/08:00am 17.8 17.4 16.3 91 0.9 NNW 13 17 7 9 1008.9 1008.7 0.2
26/07:30am 18.9 18.0 16.9 88 1.2 NNW 17 24 9 13 1009.1 1008.9 0.2
26/07:00am 18.4 17.3 16.4 88 1.2 N 17 22 9 12 1009.0 1008.8 0.2
26/06:30am 18.0 16.8 16.0 88 1.2 N 17 20 9 11 1009.2 1009.0 0.2
26/06:00am 17.9 16.6 15.9 88 1.2 NNW 17 20 9 11 1009.2 1009.0 0.2
26/05:30am 17.9 16.6 15.7 87 1.3 NNW 17 20 9 11 1009.3 1009.1 0.2
26/05:00am 18.1 16.6 15.4 84 1.6 NNW 17 20 9 11 1009.6 1009.4 0.2
26/04:30am 18.2 16.8 15.5 84 1.6 NNW 17 20 9 11 1009.9 1009.7 0.2
26/04:00am 18.3 16.8 15.2 82 1.8 NNW 17 20 9 11 1010.2 1010.0 0.2
26/03:30am 18.4 17.5 14.9 80 2.0 NNW 13 17 7 9 1010.6 1010.5 0.2
26/03:00am 18.8 18.2 14.7 77 2.4 NNW 11 13 6 7 1011.0 1010.9 0.2
26/02:30am 18.6 18.6 15.1 80 2.0 NNW 9 13 5 7 1011.3 1011.2 0.2
26/02:00am 18.2 18.2 15.1 82 1.8 NW 9 9 5 5 1011.8 1011.7 0.2
26/01:30am 18.4 18.0 15.1 81 1.9 WNW 11 15 6 8 1012.4 1012.3 0.2
26/01:00am 18.3 18.1 14.8 80 2.0 WNW 9 13 5 7 1012.4 1012.3 0.2
26/12:30am 18.5 17.7 15.0 80 2.0 W 13 15 7 8 1013.1 1012.9 0.2
26/12:00am 18.6 17.6 15.5 82 1.8 WNW 15 17 8 9 1013.4 1013.2 0.2
 
Date/Time
EDT
Temp
°C
App
Temp
°C
Dew
Point
Rel
Hum
%
Delta-T
°C
Wind Press
QNH
hPa
Press
MSL
hPa
Rain
since 9 am
mm
Dir
 
Spd
km/h
Gust
km/h
Spd
kts
Gust
kts
25/11:30pm 18.6 18.2 15.3 81 1.9 W 11 15 6 8 1013.7 1013.5 0.2
25/11:00pm 18.7 18.8 15.4 81 1.9 W 9 11 5 6 1013.9 1013.7 0.2
25/10:30pm 18.8 18.5 15.5 81 1.9 W 11 15 6 8 1014.4 1014.2 0.2
25/10:00pm 18.8 17.7 15.3 80 2.1 W 15 17 8 9 1014.7 1014.5 0.2
25/09:30pm 18.9 17.4 15.2 79 2.2 W 17 19 9 10 1014.9 1014.7 0.2
25/09:00pm 18.9 18.0 14.8 77 2.4 W 13 17 7 9 1014.7 1014.5 0.2
25/08:30pm 19.1 19.5 14.8 76 2.5 WSW 6 9 3 5 1014.8 1014.6 0.2
25/08:00pm 19.3 19.5 14.8 75 2.6 W 7 11 4 6 1015.0 1014.8 0.2
25/07:30pm 19.5 20.0 14.1 71 3.1 E 4 7 2 4 1015.3 1015.1 0.2
25/07:00pm 19.5 18.9 14.7 74 2.8 SE 11 15 6 8 1015.2 1015.0 0.2
25/06:30pm 19.6 19.3 14.4 72 3.0 SSE 9 13 5 7 1015.1 1014.9 0.2
25/06:00pm 20.0 19.5 14.8 72 3.0 S 11 17 6 9 1015.7 1015.5 0.2
25/05:30pm 20.0 18.5 14.1 69 3.4 SW 15 19 8 10 1016.1 1015.9 0.2
25/05:00pm 20.5 18.8 14.8 70 3.3 SW 17 20 9 11 1016.1 1015.9 0.2
25/04:30pm 20.3 18.6 12.5 61 4.4 S 13 20 7 11 1016.2 1016.0 0.2
25/04:00pm 20.0 19.2 15.0 73 2.9 SW 13 17 7 9 1016.5 1016.3 0.2
25/03:30pm 20.4 19.4 14.7 70 3.3 SW 13 17 7 9 1016.5 1016.3 0.2
25/03:00pm 20.7 20.6 15.0 70 3.4 SW 9 13 5 7 1016.9 1016.7 0.2
25/02:30pm 19.8 20.0 14.2 70 3.2 E 6 9 3 5 1017.3 1017.1 0.2
25/02:00pm 20.2 19.4 15.2 73 2.9 S 13 19 7 10 1017.7 1017.5 0.2
25/01:30pm 19.2 17.3 15.1 77 2.4 ESE 19 24 10 13 1018.2 1018.0 0.2
25/01:00pm 19.5 18.2 14.7 74 2.8 SSE 15 26 8 14 1018.5 1018.3 0.2
25/12:30pm 19.9 18.5 13.4 66 3.7 SE 13 17 7 9 1018.7 1018.5 0.2
25/12:00pm 19.8 18.6 14.0 69 3.3 SSE 13 17 7 9 1018.8 1018.6 0.2
25/11:30am 19.5 17.3 13.4 68 3.5 ESE 17 24 9 13 1019.0 1018.8 0.2
25/11:00am 19.5 17.3 14.3 72 3.0 SE 19 24 10 13 1019.1 1018.9 0.2
25/10:30am 18.6 17.0 14.9 79 2.2 SSW 17 24 9 13 1019.2 1019.0 0.2
25/10:00am 18.3 16.7 15.9 86 1.4 SSW 19 26 10 14 1019.3 1019.1 0.2
25/09:30am 18.0 16.8 16.0 88 1.2 SW 17 26 9 14 1019.2 1019.0 0.2
25/09:00am 17.3 16.1 16.0 92 0.8 SSW 17 22 9 12 1019.2 1019.0 5.8
25/08:30am 17.0 14.4 16.0 94 0.6 SW 24 35 13 19 1019.0 1018.8 5.6
25/08:00am 17.1 13.8 16.1 94 0.6 SW 28 37 15 20 1018.6 1018.4 5.2
25/07:30am 17.5 14.1 15.8 90 1.0 SW 28 35 15 19 1018.2 1018.0 5.0
25/07:00am 17.8 14.8 15.8 88 1.2 SW 26 33 14 18 1017.8 1017.6 5.0
25/06:30am 17.9 15.0 15.2 84 1.6 SW 24 35 13 19 1017.7 1017.5 5.0
25/06:00am 19.6 15.8 14.8 74 2.8 SE 28 35 15 19 1017.6 1017.4 5.0
25/05:30am 19.5 15.8 15.0 75 2.6 SE 28 33 15 18 1017.2 1017.0 5.0
25/05:00am 19.5 14.3 14.5 73 2.9 SE 35 41 19 22 1016.9 1016.7 5.0
25/04:30am 19.2 15.5 15.1 77 2.4 SE 28 39 15 21 1017.0 1016.8 5.0
25/04:00am 19.6 15.5 14.8 74 2.8 SE 30 39 16 21 1017.2 1017.0 5.0
25/03:30am 19.6 14.8 14.6 73 2.9 SE 33 41 18 22 1017.2 1017.0 5.0
25/03:00am 19.6 14.6 15.0 75 2.7 SSE 35 41 19 22 1017.4 1017.2 5.0
25/02:30am 19.6 14.5 15.9 79 2.2 SSE 37 46 20 25 1017.6 1017.4 5.0
25/02:25am 19.4 14.1 15.3 77 2.4 SE 37 46 20 25 1017.6 1017.4 5.0
25/02:00am 18.9 13.9 16.0 83 1.7 SE 37 44 20 24 1017.9 1017.7 5.0
25/01:30am 18.8 13.1 16.2 85 1.6 ESE 41 54 22 29 1017.9 1017.7 5.0
25/01:00am 19.7 14.4 16.3 81 2.0 SE 39 44 21 24 1018.1 1017.9 4.8
25/12:30am 18.7 14.0 16.9 89 1.1 ESE 37 46 20 25 1018.3 1018.1 4.8
25/12:00am 18.8 14.7 17.3 91 0.9 ESE 35 43 19 23 1018.5 1018.3 4.4
 
Date/Time
EDT
Temp
°C
App
Temp
°C
Dew
Point
Rel
Hum
%
Delta-T
°C
Wind Press
QNH
hPa
Press
MSL
hPa
Rain
since 9 am
mm
Dir
 
Spd
km/h
Gust
km/h
Spd
kts
Gust
kts
24/11:30pm 19.0 15.2 17.3 90 1.0 ESE 33 41 18 22 1018.6 1018.4 4.0
24/11:00pm 18.7 13.3 17.9 95 0.5 SE 43 54 23 29 1018.6 1018.4 4.0

Other Formats:

Comma delimited format used in spreadsheet applications
http://www.bom.gov.au/fwo/IDN60801/IDN60801.94939.axf

JavaScript Object Notation format (JSON) in row-major order
http://www.bom.gov.au/fwo/IDN60801/IDN60801.94939.json